createdAt,value
2017-12-02T00:00:52.819Z,20.40
2017-12-02T00:03:19.561Z,18.90
2017-12-02T00:05:46.215Z,19.58
2017-12-02T00:08:12.912Z,19.62
2017-12-02T00:10:39.559Z,19.40
2017-12-02T00:13:06.248Z,19.80
2017-12-02T00:15:32.968Z,18.73
2017-12-02T00:17:59.620Z,18.95
2017-12-02T00:20:26.395Z,18.73
2017-12-02T00:22:53.918Z,20.10
2017-12-02T00:25:20.632Z,20.15
2017-12-02T00:27:47.311Z,21.45
2017-12-02T00:30:14.105Z,20.65
2017-12-02T00:32:40.804Z,20.80
2017-12-02T00:35:07.530Z,18.92
2017-12-02T00:37:34.249Z,21.52
2017-12-02T00:40:00.961Z,20.27
2017-12-02T00:42:28.469Z,20.23
2017-12-02T00:44:55.182Z,19.83
2017-12-02T00:47:22.660Z,20.65
2017-12-02T00:49:49.308Z,20.83
2017-12-02T00:52:15.965Z,20.33
2017-12-02T00:54:42.632Z,18.92
2017-12-02T00:57:09.290Z,20.42
2017-12-02T00:59:35.915Z,17.90
2017-12-02T01:02:02.578Z,20.48
2017-12-02T01:04:29.215Z,19.35
2017-12-02T01:06:55.915Z,19.55
2017-12-02T01:09:22.567Z,20.25
2017-12-02T01:11:49.290Z,19.55
2017-12-02T01:14:16.041Z,19.85
2017-12-02T01:16:42.766Z,18.85
2017-12-02T01:19:09.411Z,21.40
2017-12-02T01:21:36.097Z,21.90
2017-12-02T01:24:02.792Z,20.73
2017-12-02T01:26:29.435Z,19.58
2017-12-02T01:28:57.066Z,20.70
2017-12-02T01:31:23.859Z,21.52
2017-12-02T01:33:50.513Z,20.17
2017-12-02T01:36:17.175Z,19.92
2017-12-02T01:38:43.852Z,18.90
2017-12-02T01:41:11.298Z,19.15
2017-12-02T01:43:37.966Z,20.70
2017-12-02T01:46:04.738Z,20.92
2017-12-02T01:48:31.395Z,23.10
2017-12-02T01:50:58.349Z,22.95
2017-12-02T01:53:25.758Z,19.90
2017-12-02T01:55:53.233Z,20.40
2017-12-02T01:58:19.893Z,20.40
2017-12-02T02:00:46.514Z,18.83
2017-12-02T02:03:13.161Z,18.05
2017-12-02T02:05:39.848Z,15.63
2017-12-02T02:08:06.622Z,17.23
2017-12-02T02:10:34.046Z,15.38
2017-12-02T02:13:00.689Z,16.50
2017-12-02T02:15:28.335Z,19.23
2017-12-02T02:17:55.161Z,19.55
2017-12-02T02:20:22.053Z,18.52
2017-12-02T02:22:48.778Z,19.33
2017-12-02T02:25:15.552Z,19.02
2017-12-02T02:27:42.694Z,20.35
2017-12-02T02:30:09.639Z,17.45
2017-12-02T02:32:37.195Z,17.15
2017-12-02T02:35:03.867Z,18.27
2017-12-02T02:37:30.521Z,17.90
2017-12-02T02:39:57.941Z,19.42
2017-12-02T02:42:24.568Z,20.42
2017-12-02T02:44:51.842Z,19.08
2017-12-02T02:47:18.509Z,20.25
2017-12-02T02:49:45.136Z,19.85
2017-12-02T02:52:11.867Z,17.58
2017-12-02T02:54:39.215Z,19.30
2017-12-02T02:57:05.973Z,19.67
2017-12-02T02:59:32.645Z,20.25
2017-12-02T03:01:59.319Z,18.08
2017-12-02T03:04:26.415Z,18.50
2017-12-02T03:06:53.116Z,20.10
2017-12-02T03:09:19.846Z,17.30
2017-12-02T03:11:47.344Z,18.77
2017-12-02T03:14:15.225Z,18.62
2017-12-02T03:16:42.071Z,19.23
2017-12-02T03:19:08.942Z,19.15
2017-12-02T03:21:35.853Z,18.40
2017-12-02T03:24:02.610Z,18.02
2017-12-02T03:26:29.684Z,19.58
2017-12-02T03:28:56.417Z,18.70
2017-12-02T03:31:23.275Z,19.73
2017-12-02T03:33:49.988Z,18.45
2017-12-02T03:36:16.995Z,18.67
2017-12-02T03:38:43.719Z,20.33
2017-12-02T03:41:10.448Z,18.15
2017-12-02T03:43:37.286Z,19.42
2017-12-02T03:46:04.051Z,20.95
2017-12-02T03:48:30.864Z,19.10
2017-12-02T03:50:57.588Z,19.37
2017-12-02T03:53:24.335Z,20.92
2017-12-02T03:55:51.113Z,21.87
2017-12-02T03:58:17.897Z,22.00
2017-12-02T04:00:44.695Z,20.00
2017-12-02T04:03:11.502Z,21.67
2017-12-02T04:05:39.014Z,21.48
2017-12-02T04:08:05.910Z,21.48
2017-12-02T04:10:33.426Z,19.33
2017-12-02T04:13:00.237Z,21.83
2017-12-02T04:15:27.010Z,20.52
2017-12-02T04:17:53.770Z,20.42
2017-12-02T04:20:20.528Z,19.00
2017-12-02T04:22:47.329Z,21.23
2017-12-02T04:25:14.064Z,19.27
2017-12-02T04:27:40.796Z,22.80
2017-12-02T04:30:08.733Z,20.95
2017-12-02T04:32:35.488Z,24.75
2017-12-02T04:35:02.792Z,22.87
2017-12-02T04:37:29.559Z,20.67
2017-12-02T04:39:56.325Z,21.50
2017-12-02T04:42:23.025Z,20.62
2017-12-02T04:44:49.745Z,23.73
2017-12-02T04:47:17.284Z,22.90
2017-12-02T04:49:44.042Z,21.65
2017-12-02T04:52:11.529Z,23.42
2017-12-02T04:54:38.270Z,23.17
2017-12-02T04:57:05.330Z,23.15
2017-12-02T04:59:32.067Z,22.13
2017-12-02T05:01:58.826Z,21.90
2017-12-02T05:04:25.543Z,23.77
2017-12-02T05:06:53.014Z,23.58
2017-12-02T05:09:20.488Z,26.65
2017-12-02T05:11:47.262Z,24.75
2017-12-02T05:14:14.042Z,27.05
2017-12-02T05:16:41.545Z,25.42
2017-12-02T05:19:08.219Z,22.67
2017-12-02T05:21:34.938Z,24.95
2017-12-02T05:24:01.683Z,25.40
2017-12-02T05:26:28.759Z,22.80
2017-12-02T05:28:55.474Z,24.50
2017-12-02T05:31:22.327Z,24.92
2017-12-02T05:33:49.067Z,24.70
2017-12-02T05:36:15.776Z,26.25
2017-12-02T05:38:43.592Z,24.85
2017-12-02T05:41:11.325Z,26.25
2017-12-02T05:43:38.055Z,23.48
2017-12-02T05:46:05.508Z,23.92
2017-12-02T05:48:32.997Z,25.25
2017-12-02T05:50:59.708Z,25.02
2017-12-02T05:53:26.410Z,25.05
2017-12-02T05:55:53.149Z,26.83
2017-12-02T05:58:19.873Z,25.10
2017-12-02T06:00:46.585Z,25.42
2017-12-02T06:03:13.314Z,29.33
2017-12-02T06:05:40.038Z,32.55
2017-12-02T06:08:06.744Z,28.35
2017-12-02T06:10:33.477Z,27.17
2017-12-02T06:13:00.982Z,27.08
2017-12-02T06:15:27.694Z,29.42
2017-12-02T06:17:55.292Z,33.55
2017-12-02T06:20:22.010Z,30.85
2017-12-02T06:22:48.770Z,29.65
2017-12-02T06:25:15.513Z,28.80
2017-12-02T06:27:42.258Z,31.80
2017-12-02T06:30:09.058Z,31.83
2017-12-02T06:32:36.539Z,31.35
2017-12-02T06:35:03.337Z,28.42
2017-12-02T06:37:30.050Z,27.65
2017-12-02T06:39:56.788Z,30.33
2017-12-02T06:42:23.541Z,26.27
2017-12-02T06:44:50.289Z,23.83
2017-12-02T06:47:17.081Z,21.33
2017-12-02T06:49:44.958Z,21.35
2017-12-02T06:52:13.286Z,18.73
2017-12-02T06:54:40.006Z,19.85
2017-12-02T06:57:06.820Z,19.80
2017-12-02T06:59:33.535Z,19.10
2017-12-02T07:02:00.285Z,20.15
2017-12-02T07:04:27.084Z,19.75
2017-12-02T07:06:53.865Z,17.95
2017-12-02T07:09:20.645Z,20.58
2017-12-02T07:11:48.205Z,20.02
2017-12-02T07:14:15.013Z,21.55
2017-12-02T07:16:41.787Z,19.80
2017-12-02T07:19:08.658Z,17.67
2017-12-02T07:21:36.980Z,18.30
2017-12-02T07:24:03.777Z,19.25
2017-12-02T07:26:32.298Z,18.90
2017-12-02T07:28:59.033Z,17.65
2017-12-02T07:31:25.772Z,18.60
2017-12-02T07:33:52.510Z,18.10
2017-12-02T07:36:20.009Z,18.20
2017-12-02T07:38:46.803Z,17.10
2017-12-02T07:41:14.286Z,17.12
2017-12-02T07:43:40.982Z,16.27
2017-12-02T07:46:07.739Z,18.87
2017-12-02T07:48:34.504Z,17.12
2017-12-02T07:51:01.986Z,19.12
2017-12-02T07:53:28.712Z,17.30
2017-12-02T07:55:56.202Z,16.70
2017-12-02T07:58:23.002Z,18.07
2017-12-02T08:00:49.731Z,17.27
2017-12-02T08:03:16.506Z,17.70
2017-12-02T08:05:44.004Z,16.70
2017-12-02T08:08:10.746Z,16.60
2017-12-02T08:10:37.527Z,19.00
2017-12-02T08:13:04.261Z,17.23
2017-12-02T08:15:31.062Z,16.90
2017-12-02T08:17:57.784Z,16.70
2017-12-02T08:20:25.262Z,15.60
2017-12-02T08:22:52.749Z,13.77
2017-12-02T08:25:19.509Z,13.40
2017-12-02T08:27:46.225Z,13.93
2017-12-02T08:30:13.009Z,13.77
2017-12-02T08:32:39.807Z,11.73
2017-12-02T08:35:06.546Z,12.07
2017-12-02T08:37:34.116Z,11.30
2017-12-02T08:40:00.904Z,10.70
2017-12-02T08:42:27.868Z,10.60
2017-12-02T08:44:54.617Z,10.70
2017-12-02T08:47:21.370Z,10.10
2017-12-02T08:49:48.133Z,9.93
2017-12-02T08:52:15.659Z,8.73
2017-12-02T08:54:42.392Z,8.50
2017-12-02T08:57:09.264Z,9.10
2017-12-02T08:59:36.002Z,9.30
2017-12-02T09:02:02.743Z,8.43
2017-12-02T09:04:29.471Z,8.77
2017-12-02T09:06:56.222Z,8.13
2017-12-02T09:09:22.953Z,8.90
2017-12-02T09:11:49.716Z,8.97
2017-12-02T09:14:16.746Z,7.97
2017-12-02T09:16:43.612Z,8.57
2017-12-02T09:19:10.311Z,8.20
2017-12-02T09:21:37.088Z,10.80
2017-12-02T09:24:03.871Z,9.20
2017-12-02T09:26:30.650Z,9.73
2017-12-02T09:28:58.358Z,10.03
2017-12-02T09:31:25.143Z,10.87
2017-12-02T09:33:52.618Z,11.77
2017-12-02T09:36:19.336Z,11.90
2017-12-02T09:38:46.867Z,11.33
2017-12-02T09:41:13.574Z,11.17
2017-12-02T09:43:41.168Z,11.07
2017-12-02T09:46:07.902Z,11.87
2017-12-02T09:48:34.672Z,11.87
2017-12-02T09:51:01.426Z,13.50
2017-12-02T09:53:28.135Z,13.07
2017-12-02T09:55:54.954Z,16.60
2017-12-02T09:58:21.653Z,16.60
2017-12-02T10:00:48.411Z,17.57
2017-12-02T10:03:15.174Z,19.40
2017-12-02T10:05:42.650Z,19.07
2017-12-02T10:08:09.437Z,18.90
2017-12-02T10:10:36.190Z,18.13
2017-12-02T10:13:02.909Z,20.20
2017-12-02T10:15:29.667Z,22.50
2017-12-02T10:17:56.420Z,21.33
2017-12-02T10:20:23.195Z,20.70
2017-12-02T10:22:50.709Z,19.90
2017-12-02T10:25:17.568Z,19.53
2017-12-02T10:27:44.313Z,18.73
2017-12-02T10:30:11.041Z,16.93
2017-12-02T10:32:37.826Z,14.30
2017-12-02T10:35:04.647Z,14.47
2017-12-02T10:37:31.443Z,12.63
2017-12-02T10:39:58.999Z,12.83
2017-12-02T10:42:25.765Z,13.77
2017-12-02T10:44:52.535Z,13.90
2017-12-02T10:47:19.313Z,12.90
2017-12-02T10:49:46.031Z,24.53
2017-12-02T10:52:12.781Z,24.57
2017-12-02T10:54:39.581Z,25.43
2017-12-02T10:57:07.102Z,24.90
2017-12-02T10:59:33.846Z,26.00
2017-12-02T11:02:00.579Z,23.30
2017-12-02T11:04:27.373Z,23.70
2017-12-02T11:06:54.786Z,24.30
2017-12-02T11:09:21.488Z,22.47
2017-12-02T11:11:48.209Z,23.20
2017-12-02T11:14:15.652Z,25.30
2017-12-02T11:16:42.369Z,24.60
2017-12-02T11:19:09.106Z,24.30
2017-12-02T11:21:35.769Z,24.83
2017-12-02T11:24:02.499Z,24.47
2017-12-02T11:26:29.362Z,26.20
2017-12-02T11:28:56.117Z,25.83
2017-12-02T11:31:22.804Z,25.70
2017-12-02T11:33:50.183Z,25.07
2017-12-02T11:36:16.932Z,23.60
2017-12-02T11:38:43.664Z,22.80
2017-12-02T11:41:11.403Z,23.13
2017-12-02T11:43:38.834Z,24.60
2017-12-02T11:46:05.514Z,23.70
2017-12-02T11:48:32.209Z,24.73
2017-12-02T11:50:58.916Z,25.27
2017-12-02T11:53:25.647Z,24.60
2017-12-02T11:55:52.321Z,23.27
2017-12-02T11:58:18.984Z,24.73
2017-12-02T12:00:45.683Z,23.67
2017-12-02T12:03:12.345Z,24.77
2017-12-02T12:05:38.995Z,25.87
2017-12-02T12:08:05.710Z,23.00
2017-12-02T12:10:32.346Z,23.10
2017-12-02T12:12:59.017Z,23.70
2017-12-02T12:15:25.713Z,23.97
2017-12-02T12:17:52.481Z,23.43
2017-12-02T12:20:19.175Z,22.25
2017-12-02T12:22:45.850Z,22.93
2017-12-02T12:25:13.337Z,22.10
2017-12-02T12:27:40.082Z,22.87
2017-12-02T12:30:06.927Z,23.67
2017-12-02T12:32:33.724Z,22.67
2017-12-02T12:35:00.426Z,24.43
2017-12-02T12:37:27.093Z,21.20
2017-12-02T12:39:53.764Z,20.95
2017-12-02T12:42:20.438Z,20.20
2017-12-02T12:44:47.122Z,22.57
2017-12-02T12:47:13.802Z,19.00
2017-12-02T12:49:41.245Z,19.67
2017-12-02T12:52:07.949Z,18.97
2017-12-02T12:54:34.654Z,19.13
2017-12-02T12:57:02.107Z,19.40
2017-12-02T12:59:29.607Z,18.23
2017-12-02T13:01:56.283Z,18.87
2017-12-02T13:04:23.002Z,18.67
2017-12-02T13:06:49.685Z,15.70
2017-12-02T13:09:16.327Z,17.47
2017-12-02T14:40:50.244Z,17.25
2017-12-02T14:43:16.910Z,17.92
2017-12-02T14:45:43.657Z,16.58
2017-12-02T14:48:11.257Z,16.90
2017-12-02T14:50:37.934Z,20.08
2017-12-02T14:53:04.684Z,22.80
2017-12-02T14:55:31.355Z,22.55
2017-12-02T14:57:58.010Z,22.23
2017-12-02T15:00:25.441Z,23.92
2017-12-02T15:02:52.191Z,24.35
2017-12-02T15:05:18.839Z,23.50
2017-12-02T15:07:45.475Z,23.05
2017-12-02T15:10:12.176Z,26.62
2017-12-02T15:12:38.844Z,26.73
2017-12-02T15:15:06.273Z,27.08
2017-12-02T15:17:33.015Z,27.98
2017-12-02T15:19:59.742Z,28.98
2017-12-02T15:22:26.417Z,29.85
2017-12-02T15:24:53.102Z,29.83
2017-12-02T15:27:19.777Z,27.45
2017-12-02T15:29:47.186Z,30.73
2017-12-02T15:32:13.852Z,30.20
2017-12-02T15:34:41.386Z,29.92
2017-12-02T15:37:08.120Z,31.48
2017-12-02T15:39:34.820Z,32.13
2017-12-02T15:42:02.311Z,31.40
2017-12-02T15:44:29.022Z,29.83
2017-12-02T15:46:56.434Z,28.62
2017-12-02T15:49:23.113Z,32.58
2017-12-02T15:51:49.878Z,33.83
2017-12-02T15:54:17.367Z,32.60
2017-12-02T15:56:44.148Z,31.15
2017-12-02T15:59:10.904Z,31.73
2017-12-02T16:01:37.598Z,30.48
2017-12-02T16:04:04.635Z,32.10
2017-12-02T16:06:31.334Z,30.85
2017-12-02T16:08:58.054Z,30.65
2017-12-02T16:11:24.706Z,31.45
2017-12-02T16:13:51.389Z,29.20
2017-12-02T16:16:18.923Z,31.40
2017-12-02T16:18:46.341Z,32.80
2017-12-02T16:21:13.058Z,33.30
2017-12-02T16:23:40.595Z,32.50
2017-12-02T16:26:07.319Z,32.55
2017-12-02T16:28:34.788Z,34.38
2017-12-02T16:31:01.496Z,32.83
2017-12-02T16:33:28.182Z,34.00
2017-12-02T16:35:54.870Z,34.85
2017-12-02T16:38:22.274Z,35.97
2017-12-02T16:40:49.051Z,33.40
2017-12-02T16:43:15.861Z,40.08
2017-12-02T16:45:42.641Z,39.83
2017-12-02T16:48:09.449Z,39.47
2017-12-02T16:50:36.216Z,38.97
2017-12-02T16:53:03.032Z,36.92
2017-12-02T16:55:29.759Z,35.90
2017-12-02T16:57:56.507Z,38.63
2017-12-02T17:00:23.479Z,37.97
2017-12-02T17:02:50.968Z,38.63
2017-12-02T17:05:17.822Z,39.00
2017-12-02T17:07:44.588Z,39.60
2017-12-02T17:10:12.104Z,40.42
2017-12-02T17:12:38.902Z,41.10
2017-12-02T17:15:06.385Z,41.80
2017-12-02T17:17:33.060Z,42.47
2017-12-02T17:19:59.912Z,42.35
2017-12-02T17:22:26.705Z,43.92
2017-12-02T17:24:53.516Z,42.42
2017-12-02T17:27:20.328Z,44.50
2017-12-02T17:29:47.002Z,40.80
2017-12-02T17:32:13.754Z,44.42
2017-12-02T17:34:41.611Z,47.62
2017-12-02T17:37:08.265Z,42.03
2017-12-02T17:39:35.044Z,44.20
2017-12-02T17:42:01.849Z,43.72
2017-12-02T17:44:28.617Z,47.42
2017-12-02T17:46:56.096Z,46.88
2017-12-02T17:49:22.841Z,47.75
2017-12-02T17:51:49.535Z,49.50
2017-12-02T17:54:16.316Z,45.65
2017-12-02T17:56:43.830Z,48.92
2017-12-02T17:59:10.582Z,48.67
2017-12-02T18:01:37.338Z,50.08
2017-12-02T18:04:03.983Z,51.15
2017-12-02T18:06:30.658Z,52.53
2017-12-02T18:08:58.149Z,54.75
2017-12-02T18:11:24.869Z,51.85
2017-12-02T18:13:51.516Z,55.03
2017-12-02T18:16:18.298Z,57.75
2017-12-02T18:18:44.973Z,55.72
2017-12-02T18:21:11.641Z,59.63
2017-12-02T18:23:38.518Z,54.25
2017-12-02T18:26:05.154Z,57.33
2017-12-02T18:28:31.920Z,60.70
2017-12-02T18:30:58.637Z,62.95
2017-12-02T18:33:25.296Z,59.50
2017-12-02T18:35:52.057Z,60.10
2017-12-02T18:38:19.546Z,56.30
2017-12-02T18:40:46.986Z,56.75
2017-12-02T18:43:13.658Z,52.85
2017-12-02T18:45:40.419Z,51.25
2017-12-02T18:48:08.758Z,54.55
2017-12-02T18:50:35.591Z,55.50
2017-12-02T18:53:02.357Z,59.83
2017-12-02T18:55:29.802Z,56.22
2017-12-02T18:57:56.470Z,59.55
2017-12-02T19:00:24.876Z,55.55
2017-12-02T19:02:51.567Z,56.88
2017-12-02T19:05:18.275Z,58.33
2017-12-02T19:07:44.941Z,51.42
2017-12-02T19:10:11.744Z,50.17
2017-12-02T19:12:38.541Z,48.60
2017-12-02T19:15:05.279Z,51.33
2017-12-02T19:17:31.966Z,58.28
2017-12-02T19:19:59.417Z,65.82
2017-12-02T19:22:26.829Z,68.40
2017-12-02T19:24:53.589Z,57.28
2017-12-02T19:27:20.249Z,50.53
2017-12-02T19:29:46.919Z,49.30
2017-12-02T19:32:15.162Z,52.00
2017-12-02T19:34:41.960Z,52.97
2017-12-02T19:37:09.110Z,48.97
2017-12-02T19:39:36.167Z,60.22
2017-12-02T19:42:02.851Z,56.55
2017-12-02T19:44:29.494Z,57.28
2017-12-02T19:46:57.171Z,50.70
2017-12-02T19:49:23.898Z,51.37
2017-12-02T19:51:50.709Z,54.47
2017-12-02T19:54:17.404Z,57.40
2017-12-02T19:56:44.070Z,55.40
2017-12-02T19:59:11.490Z,50.65
2017-12-02T20:01:38.157Z,48.53
2017-12-02T20:04:04.814Z,50.50
2017-12-02T20:06:31.596Z,55.50
2017-12-02T20:08:58.409Z,61.10
2017-12-02T20:11:25.986Z,58.50
2017-12-02T20:13:53.437Z,61.85
2017-12-02T20:16:23.829Z,55.72
2017-12-02T20:18:50.554Z,49.67
2017-12-02T20:21:17.227Z,64.37
2017-12-02T20:23:44.080Z,59.35
2017-12-02T20:26:10.771Z,58.55
2017-12-02T20:28:37.422Z,51.58
2017-12-02T20:31:04.113Z,53.50
2017-12-02T20:33:30.823Z,63.70
2017-12-02T20:35:57.539Z,57.90
2017-12-02T20:38:24.240Z,54.85
2017-12-02T20:40:50.953Z,51.00
2017-12-02T20:43:17.628Z,52.40
2017-12-02T20:45:44.328Z,60.35
2017-12-02T20:48:11.090Z,52.78
2017-12-02T20:50:37.749Z,55.15
2017-12-02T20:53:04.383Z,47.22
2017-12-02T20:55:31.114Z,53.75
2017-12-02T20:57:57.769Z,52.92
2017-12-02T21:00:24.432Z,55.65
2017-12-02T21:02:51.110Z,68.75
2017-12-02T21:05:17.871Z,56.53
2017-12-02T21:07:44.542Z,65.05
2017-12-02T21:10:11.229Z,58.17
2017-12-02T21:12:37.890Z,59.33
2017-12-02T21:15:04.540Z,55.45
2017-12-02T21:17:31.289Z,50.38
2017-12-02T21:19:57.920Z,49.15
2017-12-02T21:22:25.530Z,56.75
2017-12-02T21:24:52.241Z,49.45
2017-12-02T21:27:18.934Z,56.88
2017-12-02T21:29:46.367Z,55.08
2017-12-02T21:32:13.064Z,58.15
2017-12-02T21:34:39.820Z,51.78
2017-12-02T21:37:06.544Z,50.92
2017-12-02T21:39:34.010Z,49.42
2017-12-02T21:42:00.684Z,48.35
2017-12-02T21:44:28.017Z,47.05
2017-12-02T21:46:54.771Z,48.60
2017-12-02T21:49:21.519Z,47.95
2017-12-02T21:51:48.293Z,52.70
2017-12-02T21:54:14.954Z,48.65
2017-12-02T21:56:41.688Z,47.17
2017-12-02T21:59:08.403Z,48.25
2017-12-02T22:01:35.114Z,46.70
2017-12-02T22:04:02.551Z,49.53
2017-12-02T22:06:29.252Z,45.60
2017-12-02T22:08:56.013Z,48.60
2017-12-02T22:11:22.713Z,49.63
2017-12-02T22:13:50.215Z,53.22
2017-12-02T22:16:16.984Z,53.95
2017-12-02T22:18:43.809Z,55.97
2017-12-02T22:21:10.665Z,61.17
2017-12-02T22:23:37.353Z,65.85
2017-12-02T22:26:04.895Z,61.47
2017-12-02T22:28:32.325Z,85.95
2017-12-02T22:30:59.069Z,62.85
2017-12-02T22:33:25.777Z,61.10
2017-12-02T22:35:52.545Z,67.07
2017-12-02T22:38:19.250Z,65.55
2017-12-02T22:40:46.808Z,96.50
2017-12-02T22:43:13.542Z,87.32
2017-12-02T22:45:40.331Z,83.55
2017-12-02T22:48:07.005Z,63.33
2017-12-02T22:50:33.684Z,64.75
2017-12-02T22:53:00.455Z,65.12
2017-12-02T22:55:27.215Z,84.60
2017-12-02T22:57:53.895Z,106.65
2017-12-02T23:00:20.657Z,99.50
2017-12-02T23:02:48.106Z,86.35
2017-12-02T23:05:14.905Z,89.13
2017-12-02T23:07:41.589Z,84.93
2017-12-02T23:10:08.274Z,74.72
2017-12-02T23:12:34.976Z,123.90
2017-12-02T23:15:01.715Z,82.22
2017-12-02T23:17:28.376Z,89.90
2017-12-02T23:19:55.086Z,102.53
2017-12-02T23:22:21.839Z,113.72
2017-12-02T23:24:48.552Z,139.95
2017-12-02T23:27:15.275Z,63.92
2017-12-02T23:29:42.003Z,59.78
2017-12-02T23:32:09.439Z,181.02
2017-12-02T23:34:36.127Z,90.62
2017-12-02T23:37:03.397Z,67.32
2017-12-02T23:39:30.143Z,147.65
2017-12-02T23:41:57.745Z,74.43
2017-12-02T23:44:24.415Z,80.28
2017-12-02T23:46:51.824Z,63.17
2017-12-02T23:49:18.516Z,64.70
2017-12-02T23:51:45.919Z,58.33
2017-12-02T23:54:12.677Z,73.87
2017-12-02T23:56:39.425Z,78.15
2017-12-02T23:59:06.323Z,72.65
